sensor_id;sensor_type;location;lat;lon;timestamp;temperature;humidity
14783;DHT22;7483;50.498;12.138;2023-03-11T00:00:44;2.30;99.90
14783;DHT22;7483;50.498;12.138;2023-03-11T00:03:15;2.20;99.90
14783;DHT22;7483;50.498;12.138;2023-03-11T00:05:46;2.10;99.90
14783;DHT22;7483;50.498;12.138;2023-03-11T00:08:15;1.90;1.00
14783;DHT22;7483;50.498;12.138;2023-03-11T00:10:47;1.80;99.90
14783;DHT22;7483;50.498;12.138;2023-03-11T00:13:19;1.70;99.90
14783;DHT22;7483;50.498;12.138;2023-03-11T00:15:49;1.80;99.90
14783;DHT22;7483;50.498;12.138;2023-03-11T00:18:22;1.80;99.90
14783;DHT22;7483;50.498;12.138;2023-03-11T00:20:55;1.80;99.90
14783;DHT22;7483;50.498;12.138;2023-03-11T00:23:24;1.80;99.90
14783;DHT22;7483;50.498;12.138;2023-03-11T00:25:53;1.80;99.90
14783;DHT22;7483;50.498;12.138;2023-03-11T00:28:21;1.80;99.90
14783;DHT22;7483;50.498;12.138;2023-03-11T00:30:51;1.80;99.90
14783;DHT22;7483;50.498;12.138;2023-03-11T00:33:20;1.70;99.90
14783;DHT22;7483;50.498;12.138;2023-03-11T00:35:49;1.80;99.90
14783;DHT22;7483;50.498;12.138;2023-03-11T00:38:20;1.80;99.90
14783;DHT22;7483;50.498;12.138;2023-03-11T00:40:49;1.70;99.90
14783;DHT22;7483;50.498;12.138;2023-03-11T00:43:17;1.70;99.90
14783;DHT22;7483;50.498;12.138;2023-03-11T00:45:45;1.70;99.90
14783;DHT22;7483;50.498;12.138;2023-03-11T00:48:14;1.80;99.90
14783;DHT22;7483;50.498;12.138;2023-03-11T00:50:42;1.80;99.90
14783;DHT22;7483;50.498;12.138;2023-03-11T00:53:11;1.70;99.90
14783;DHT22;7483;50.498;12.138;2023-03-11T00:55:40;1.70;99.90
14783;DHT22;7483;50.498;12.138;2023-03-11T00:58:11;1.80;99.90
14783;DHT22;7483;50.498;12.138;2023-03-11T01:00:57;1.80;99.90
14783;DHT22;7483;50.498;12.138;2023-03-11T01:03:25;1.80;99.90
14783;DHT22;7483;50.498;12.138;2023-03-11T01:05:53;1.80;99.90
14783;DHT22;7483;50.498;12.138;2023-03-11T01:08:23;1.80;99.90
14783;DHT22;7483;50.498;12.138;2023-03-11T01:10:54;1.70;99.90
14783;DHT22;7483;50.498;12.138;2023-03-11T01:13:23;1.80;99.90
14783;DHT22;7483;50.498;12.138;2023-03-11T01:15:51;1.80;99.90
14783;DHT22;7483;50.498;12.138;2023-03-11T01:18:20;1.70;99.90
14783;DHT22;7483;50.498;12.138;2023-03-11T01:20:48;1.60;99.90
14783;DHT22;7483;50.498;12.138;2023-03-11T01:23:18;1.60;99.90
14783;DHT22;7483;50.498;12.138;2023-03-11T01:25:47;1.50;99.90
14783;DHT22;7483;50.498;12.138;2023-03-11T01:28:16;1.50;99.90
14783;DHT22;7483;50.498;12.138;2023-03-11T01:30:44;1.50;99.90
14783;DHT22;7483;50.498;12.138;2023-03-11T01:33:14;1.40;99.90
14783;DHT22;7483;50.498;12.138;2023-03-11T01:35:44;1.40;99.90
14783;DHT22;7483;50.498;12.138;2023-03-11T01:38:15;1.40;99.90
14783;DHT22;7483;50.498;12.138;2023-03-11T01:40:44;1.40;99.90
14783;DHT22;7483;50.498;12.138;2023-03-11T01:43:40;1.40;99.90
14783;DHT22;7483;50.498;12.138;2023-03-11T01:46:19;1.40;99.90
14783;DHT22;7483;50.498;12.138;2023-03-11T01:48:50;1.40;99.90
14783;DHT22;7483;50.498;12.138;2023-03-11T01:51:23;1.40;99.90
14783;DHT22;7483;50.498;12.138;2023-03-11T01:53:56;1.40;99.90
14783;DHT22;7483;50.498;12.138;2023-03-11T01:56:27;1.40;99.90
14783;DHT22;7483;50.498;12.138;2023-03-11T01:58:58;1.40;99.90
14783;DHT22;7483;50.498;12.138;2023-03-11T02:01:26;1.40;99.90
14783;DHT22;7483;50.498;12.138;2023-03-11T02:03:57;1.40;99.90
14783;DHT22;7483;50.498;12.138;2023-03-11T02:06:26;1.40;99.90
14783;DHT22;7483;50.498;12.138;2023-03-11T02:08:55;1.40;99.90
14783;DHT22;7483;50.498;12.138;2023-03-11T02:11:26;1.40;99.90
14783;DHT22;7483;50.498;12.138;2023-03-11T02:14:00;1.40;99.90
14783;DHT22;7483;50.498;12.138;2023-03-11T02:16:31;1.40;99.90
14783;DHT22;7483;50.498;12.138;2023-03-11T02:19:07;1.40;99.90
14783;DHT22;7483;50.498;12.138;2023-03-11T02:21:42;1.40;99.90
14783;DHT22;7483;50.498;12.138;2023-03-11T02:24:14;1.40;99.90
14783;DHT22;7483;50.498;12.138;2023-03-11T02:26:54;1.50;99.90
14783;DHT22;7483;50.498;12.138;2023-03-11T02:29:24;1.50;99.90
14783;DHT22;7483;50.498;12.138;2023-03-11T02:31:55;1.60;99.90
14783;DHT22;7483;50.498;12.138;2023-03-11T02:34:27;1.60;99.90
14783;DHT22;7483;50.498;12.138;2023-03-11T02:36:59;1.60;99.90
14783;DHT22;7483;50.498;12.138;2023-03-11T02:39:29;1.70;99.90
14783;DHT22;7483;50.498;12.138;2023-03-11T02:42:01;1.70;99.90
14783;DHT22;7483;50.498;12.138;2023-03-11T02:44:33;1.70;99.90
14783;DHT22;7483;50.498;12.138;2023-03-11T02:47:02;1.70;99.90
14783;DHT22;7483;50.498;12.138;2023-03-11T02:49:31;1.70;99.90
14783;DHT22;7483;50.498;12.138;2023-03-11T02:51:59;1.70;99.90
14783;DHT22;7483;50.498;12.138;2023-03-11T02:54:28;1.70;99.90
14783;DHT22;7483;50.498;12.138;2023-03-11T02:56:56;1.70;99.90
14783;DHT22;7483;50.498;12.138;2023-03-11T02:59:27;1.70;99.90
14783;DHT22;7483;50.498;12.138;2023-03-11T03:01:57;1.70;99.90
14783;DHT22;7483;50.498;12.138;2023-03-11T03:04:25;1.70;99.90
14783;DHT22;7483;50.498;12.138;2023-03-11T03:06:55;1.70;99.90
14783;DHT22;7483;50.498;12.138;2023-03-11T03:09:23;1.70;99.90
14783;DHT22;7483;50.498;12.138;2023-03-11T03:11:51;1.80;99.90
14783;DHT22;7483;50.498;12.138;2023-03-11T03:14:19;1.70;99.90
14783;DHT22;7483;50.498;12.138;2023-03-11T03:16:49;1.70;99.90
14783;DHT22;7483;50.498;12.138;2023-03-11T03:19:17;1.70;99.90
14783;DHT22;7483;50.498;12.138;2023-03-11T03:21:45;1.70;99.90
14783;DHT22;7483;50.498;12.138;2023-03-11T03:24:13;1.70;99.90
14783;DHT22;7483;50.498;12.138;2023-03-11T03:26:41;1.70;99.90
14783;DHT22;7483;50.498;12.138;2023-03-11T03:29:09;1.70;99.90
14783;DHT22;7483;50.498;12.138;2023-03-11T03:31:38;1.70;99.90
14783;DHT22;7483;50.498;12.138;2023-03-11T03:34:08;1.60;99.90
14783;DHT22;7483;50.498;12.138;2023-03-11T03:36:36;1.60;99.90
14783;DHT22;7483;50.498;12.138;2023-03-11T03:39:05;1.60;99.90
14783;DHT22;7483;50.498;12.138;2023-03-11T03:41:35;1.60;99.90
14783;DHT22;7483;50.498;12.138;2023-03-11T03:44:04;1.60;99.90
14783;DHT22;7483;50.498;12.138;2023-03-11T03:46:34;1.50;99.90
14783;DHT22;7483;50.498;12.138;2023-03-11T03:49:05;1.60;99.90
14783;DHT22;7483;50.498;12.138;2023-03-11T03:51:35;1.50;99.90
14783;DHT22;7483;50.498;12.138;2023-03-11T03:54:08;1.50;99.90
14783;DHT22;7483;50.498;12.138;2023-03-11T03:56:36;1.60;99.90
14783;DHT22;7483;50.498;12.138;2023-03-11T03:59:05;1.60;99.90
14783;DHT22;7483;50.498;12.138;2023-03-11T04:01:38;1.80;99.90
14783;DHT22;7483;50.498;12.138;2023-03-11T04:04:06;1.70;99.90
14783;DHT22;7483;50.498;12.138;2023-03-11T04:06:35;1.60;99.90
14783;DHT22;7483;50.498;12.138;2023-03-11T04:09:06;1.60;99.90
14783;DHT22;7483;50.498;12.138;2023-03-11T04:11:34;1.70;99.90
14783;DHT22;7483;50.498;12.138;2023-03-11T04:14:03;1.60;99.90
14783;DHT22;7483;50.498;12.138;2023-03-11T04:16:37;1.50;99.90
14783;DHT22;7483;50.498;12.138;2023-03-11T04:19:09;1.60;99.90
14783;DHT22;7483;50.498;12.138;2023-03-11T04:21:40;1.50;99.90
14783;DHT22;7483;50.498;12.138;2023-03-11T04:24:08;1.50;99.90
14783;DHT22;7483;50.498;12.138;2023-03-11T04:26:38;1.50;99.90
14783;DHT22;7483;50.498;12.138;2023-03-11T04:29:10;1.30;99.90
14783;DHT22;7483;50.498;12.138;2023-03-11T04:31:42;1.40;99.90
14783;DHT22;7483;50.498;12.138;2023-03-11T04:34:10;1.40;99.90
14783;DHT22;7483;50.498;12.138;2023-03-11T04:36:40;1.40;99.90
14783;DHT22;7483;50.498;12.138;2023-03-11T04:39:11;1.40;99.90
14783;DHT22;7483;50.498;12.138;2023-03-11T04:41:41;1.30;99.90
14783;DHT22;7483;50.498;12.138;2023-03-11T04:44:14;1.30;99.90
14783;DHT22;7483;50.498;12.138;2023-03-11T04:46:42;1.40;99.90
14783;DHT22;7483;50.498;12.138;2023-03-11T04:49:10;1.40;99.90
14783;DHT22;7483;50.498;12.138;2023-03-11T04:51:40;1.40;99.90
14783;DHT22;7483;50.498;12.138;2023-03-11T04:54:10;1.50;99.90
14783;DHT22;7483;50.498;12.138;2023-03-11T04:56:38;1.50;99.90
14783;DHT22;7483;50.498;12.138;2023-03-11T04:59:06;1.40;99.90
14783;DHT22;7483;50.498;12.138;2023-03-11T05:01:37;1.30;99.90
14783;DHT22;7483;50.498;12.138;2023-03-11T05:04:07;1.30;99.90
14783;DHT22;7483;50.498;12.138;2023-03-11T05:06:35;1.20;99.90
14783;DHT22;7483;50.498;12.138;2023-03-11T05:09:05;1.30;99.90
14783;DHT22;7483;50.498;12.138;2023-03-11T05:11:36;1.40;99.90
14783;DHT22;7483;50.498;12.138;2023-03-11T05:14:04;1.30;99.90
14783;DHT22;7483;50.498;12.138;2023-03-11T05:16:32;1.40;99.90
14783;DHT22;7483;50.498;12.138;2023-03-11T05:19:02;1.40;99.90
14783;DHT22;7483;50.498;12.138;2023-03-11T05:21:51;1.40;99.90
14783;DHT22;7483;50.498;12.138;2023-03-11T05:24:21;1.40;99.90
14783;DHT22;7483;50.498;12.138;2023-03-11T05:26:51;1.60;99.90
14783;DHT22;7483;50.498;12.138;2023-03-11T05:29:19;1.70;99.90
14783;DHT22;7483;50.498;12.138;2023-03-11T05:31:48;1.50;99.90
14783;DHT22;7483;50.498;12.138;2023-03-11T05:34:16;1.40;99.90
14783;DHT22;7483;50.498;12.138;2023-03-11T05:36:44;1.40;99.90
14783;DHT22;7483;50.498;12.138;2023-03-11T05:39:13;1.40;99.90
14783;DHT22;7483;50.498;12.138;2023-03-11T05:41:43;1.20;99.90
14783;DHT22;7483;50.498;12.138;2023-03-11T05:44:11;1.20;99.90
14783;DHT22;7483;50.498;12.138;2023-03-11T05:46:39;1.10;99.90
14783;DHT22;7483;50.498;12.138;2023-03-11T05:49:07;1.20;99.90
14783;DHT22;7483;50.498;12.138;2023-03-11T05:51:36;1.20;99.90
14783;DHT22;7483;50.498;12.138;2023-03-11T05:54:04;1.20;99.90
14783;DHT22;7483;50.498;12.138;2023-03-11T05:56:39;1.20;99.90
14783;DHT22;7483;50.498;12.138;2023-03-11T05:59:09;1.30;99.90
14783;DHT22;7483;50.498;12.138;2023-03-11T06:01:41;1.30;99.90
14783;DHT22;7483;50.498;12.138;2023-03-11T06:04:10;1.30;99.90
14783;DHT22;7483;50.498;12.138;2023-03-11T06:06:40;1.40;99.90
14783;DHT22;7483;50.498;12.138;2023-03-11T06:09:10;1.30;99.90
14783;DHT22;7483;50.498;12.138;2023-03-11T06:11:41;1.10;99.90
14783;DHT22;7483;50.498;12.138;2023-03-11T06:14:12;1.10;99.90
14783;DHT22;7483;50.498;12.138;2023-03-11T06:16:43;1.20;99.90
14783;DHT22;7483;50.498;12.138;2023-03-11T06:19:12;1.10;99.90
14783;DHT22;7483;50.498;12.138;2023-03-11T06:21:45;1.10;99.90
14783;DHT22;7483;50.498;12.138;2023-03-11T06:24:15;1.00;99.90
14783;DHT22;7483;50.498;12.138;2023-03-11T06:26:44;1.00;99.90
14783;DHT22;7483;50.498;12.138;2023-03-11T06:29:16;1.10;99.90
14783;DHT22;7483;50.498;12.138;2023-03-11T06:31:46;1.00;99.90
14783;DHT22;7483;50.498;12.138;2023-03-11T06:34:14;1.00;99.90
14783;DHT22;7483;50.498;12.138;2023-03-11T06:36:42;1.00;99.90
14783;DHT22;7483;50.498;12.138;2023-03-11T06:39:12;1.00;99.90
14783;DHT22;7483;50.498;12.138;2023-03-11T06:41:42;1.10;99.90
14783;DHT22;7483;50.498;12.138;2023-03-11T06:44:11;1.20;99.90
14783;DHT22;7483;50.498;12.138;2023-03-11T06:46:42;1.20;99.90
14783;DHT22;7483;50.498;12.138;2023-03-11T06:49:11;1.30;99.90
14783;DHT22;7483;50.498;12.138;2023-03-11T06:51:40;1.20;99.90
14783;DHT22;7483;50.498;12.138;2023-03-11T06:54:09;1.30;99.90
14783;DHT22;7483;50.498;12.138;2023-03-11T06:56:38;1.20;99.90
14783;DHT22;7483;50.498;12.138;2023-03-11T06:59:08;1.20;99.90
14783;DHT22;7483;50.498;12.138;2023-03-11T07:01:36;1.30;99.90
14783;DHT22;7483;50.498;12.138;2023-03-11T07:04:09;1.30;99.90
14783;DHT22;7483;50.498;12.138;2023-03-11T07:06:40;1.30;99.90
14783;DHT22;7483;50.498;12.138;2023-03-11T07:09:17;1.30;99.90
14783;DHT22;7483;50.498;12.138;2023-03-11T07:11:48;1.20;99.90
14783;DHT22;7483;50.498;12.138;2023-03-11T07:14:23;1.30;99.90
14783;DHT22;7483;50.498;12.138;2023-03-11T07:16:54;1.20;99.90
14783;DHT22;7483;50.498;12.138;2023-03-11T07:19:29;1.30;99.90
14783;DHT22;7483;50.498;12.138;2023-03-11T07:21:57;1.40;99.90
14783;DHT22;7483;50.498;12.138;2023-03-11T07:24:26;1.40;99.90
14783;DHT22;7483;50.498;12.138;2023-03-11T07:26:54;1.30;99.90
14783;DHT22;7483;50.498;12.138;2023-03-11T07:29:23;1.20;99.90
14783;DHT22;7483;50.498;12.138;2023-03-11T07:31:50;1.30;99.90
14783;DHT22;7483;50.498;12.138;2023-03-11T07:34:19;1.30;99.90
14783;DHT22;7483;50.498;12.138;2023-03-11T07:36:48;1.50;99.90
14783;DHT22;7483;50.498;12.138;2023-03-11T07:39:17;1.50;99.90
14783;DHT22;7483;50.498;12.138;2023-03-11T07:41:45;1.50;99.90
14783;DHT22;7483;50.498;12.138;2023-03-11T07:44:14;1.50;99.90
14783;DHT22;7483;50.498;12.138;2023-03-11T07:46:45;1.60;99.90
14783;DHT22;7483;50.498;12.138;2023-03-11T07:49:13;1.50;99.90
14783;DHT22;7483;50.498;12.138;2023-03-11T07:51:41;1.60;99.90
14783;DHT22;7483;50.498;12.138;2023-03-11T07:54:12;1.50;99.90
14783;DHT22;7483;50.498;12.138;2023-03-11T07:56:40;1.40;99.90
14783;DHT22;7483;50.498;12.138;2023-03-11T07:59:08;1.60;99.90
14783;DHT22;7483;50.498;12.138;2023-03-11T08:01:36;1.80;99.90
14783;DHT22;7483;50.498;12.138;2023-03-11T08:04:08;1.80;99.90
14783;DHT22;7483;50.498;12.138;2023-03-11T08:06:41;1.80;99.90
14783;DHT22;7483;50.498;12.138;2023-03-11T08:09:12;1.80;99.90
14783;DHT22;7483;50.498;12.138;2023-03-11T08:11:40;1.70;99.90
14783;DHT22;7483;50.498;12.138;2023-03-11T08:14:08;1.60;99.90
14783;DHT22;7483;50.498;12.138;2023-03-11T08:16:38;1.60;99.90
14783;DHT22;7483;50.498;12.138;2023-03-11T08:19:10;1.70;99.90
14783;DHT22;7483;50.498;12.138;2023-03-11T08:21:38;1.70;99.90
14783;DHT22;7483;50.498;12.138;2023-03-11T08:24:06;1.80;99.90
14783;DHT22;7483;50.498;12.138;2023-03-11T08:26:38;1.80;99.90
14783;DHT22;7483;50.498;12.138;2023-03-11T08:29:07;1.80;99.90
14783;DHT22;7483;50.498;12.138;2023-03-11T08:31:35;1.70;99.90
14783;DHT22;7483;50.498;12.138;2023-03-11T08:34:05;1.80;99.90
14783;DHT22;7483;50.498;12.138;2023-03-11T08:36:38;1.80;99.90
14783;DHT22;7483;50.498;12.138;2023-03-11T08:39:06;1.80;99.90
14783;DHT22;7483;50.498;12.138;2023-03-11T08:41:34;1.80;99.90
14783;DHT22;7483;50.498;12.138;2023-03-11T08:44:04;1.90;99.90
14783;DHT22;7483;50.498;12.138;2023-03-11T08:46:35;2.10;99.90
14783;DHT22;7483;50.498;12.138;2023-03-11T08:49:05;2.20;99.90
14783;DHT22;7483;50.498;12.138;2023-03-11T08:51:34;2.30;99.90
14783;DHT22;7483;50.498;12.138;2023-03-11T08:54:03;2.30;99.90
14783;DHT22;7483;50.498;12.138;2023-03-11T08:56:31;2.30;99.90
14783;DHT22;7483;50.498;12.138;2023-03-11T08:58:59;2.40;99.90
14783;DHT22;7483;50.498;12.138;2023-03-11T09:01:29;2.50;99.90
14783;DHT22;7483;50.498;12.138;2023-03-11T09:03:57;2.40;99.90
14783;DHT22;7483;50.498;12.138;2023-03-11T09:06:25;2.50;99.90
14783;DHT22;7483;50.498;12.138;2023-03-11T09:08:56;2.50;99.90
14783;DHT22;7483;50.498;12.138;2023-03-11T09:11:24;2.40;99.90
14783;DHT22;7483;50.498;12.138;2023-03-11T09:13:52;2.60;99.90
14783;DHT22;7483;50.498;12.138;2023-03-11T09:16:21;2.70;99.90
14783;DHT22;7483;50.498;12.138;2023-03-11T09:18:51;2.70;99.90
14783;DHT22;7483;50.498;12.138;2023-03-11T09:21:19;2.70;99.90
14783;DHT22;7483;50.498;12.138;2023-03-11T09:23:48;2.70;99.90
14783;DHT22;7483;50.498;12.138;2023-03-11T09:26:16;2.80;99.90
14783;DHT22;7483;50.498;12.138;2023-03-11T09:28:44;2.70;99.90
14783;DHT22;7483;50.498;12.138;2023-03-11T09:31:15;2.70;99.90
14783;DHT22;7483;50.498;12.138;2023-03-11T09:33:44;2.70;99.90
14783;DHT22;7483;50.498;12.138;2023-03-11T09:36:15;2.60;99.90
14783;DHT22;7483;50.498;12.138;2023-03-11T09:38:46;2.50;99.90
14783;DHT22;7483;50.498;12.138;2023-03-11T09:41:27;2.60;99.90
14783;DHT22;7483;50.498;12.138;2023-03-11T09:44:19;2.70;99.90
14783;DHT22;7483;50.498;12.138;2023-03-11T09:47:16;2.40;99.90
14783;DHT22;7483;50.498;12.138;2023-03-11T09:50:25;2.60;99.90
14783;DHT22;7483;50.498;12.138;2023-03-11T09:53:10;2.80;99.90
14783;DHT22;7483;50.498;12.138;2023-03-11T09:55:47;2.70;99.90
14783;DHT22;7483;50.498;12.138;2023-03-11T09:58:21;2.60;99.90
14783;DHT22;7483;50.498;12.138;2023-03-11T10:01:03;2.60;99.90
14783;DHT22;7483;50.498;12.138;2023-03-11T10:03:40;2.60;99.90
14783;DHT22;7483;50.498;12.138;2023-03-11T10:06:15;2.80;99.90
14783;DHT22;7483;50.498;12.138;2023-03-11T10:08:53;2.80;99.90
14783;DHT22;7483;50.498;12.138;2023-03-11T10:11:49;2.70;99.90
14783;DHT22;7483;50.498;12.138;2023-03-11T10:17:56;2.20;99.90
14783;DHT22;7483;50.498;12.138;2023-03-11T10:20:44;2.20;99.90
14783;DHT22;7483;50.498;12.138;2023-03-11T10:23:24;2.10;99.90
14783;DHT22;7483;50.498;12.138;2023-03-11T10:26:08;2.20;99.90
14783;DHT22;7483;50.498;12.138;2023-03-11T10:28:44;2.30;99.90
14783;DHT22;7483;50.498;12.138;2023-03-11T10:31:20;2.40;99.90
14783;DHT22;7483;50.498;12.138;2023-03-11T10:33:55;2.60;99.90
14783;DHT22;7483;50.498;12.138;2023-03-11T10:36:34;2.70;99.90
14783;DHT22;7483;50.498;12.138;2023-03-11T10:39:09;2.60;99.90
14783;DHT22;7483;50.498;12.138;2023-03-11T10:41:42;2.80;99.90
14783;DHT22;7483;50.498;12.138;2023-03-11T10:44:16;2.80;99.90
14783;DHT22;7483;50.498;12.138;2023-03-11T10:46:46;2.80;99.90
14783;DHT22;7483;50.498;12.138;2023-03-11T10:49:16;2.60;99.90
14783;DHT22;7483;50.498;12.138;2023-03-11T10:51:47;2.70;99.90
14783;DHT22;7483;50.498;12.138;2023-03-11T10:54:28;2.80;99.90
14783;DHT22;7483;50.498;12.138;2023-03-11T10:57:00;3.00;99.90
14783;DHT22;7483;50.498;12.138;2023-03-11T10:59:31;3.00;99.90
14783;DHT22;7483;50.498;12.138;2023-03-11T11:02:01;3.00;99.90
14783;DHT22;7483;50.498;12.138;2023-03-11T11:04:35;3.00;99.90
14783;DHT22;7483;50.498;12.138;2023-03-11T11:07:28;3.00;99.90
14783;DHT22;7483;50.498;12.138;2023-03-11T11:10:14;3.00;99.90
14783;DHT22;7483;50.498;12.138;2023-03-11T11:12:54;2.90;99.90
14783;DHT22;7483;50.498;12.138;2023-03-11T11:15:27;2.80;99.90
14783;DHT22;7483;50.498;12.138;2023-03-11T11:17:59;2.60;99.90
14783;DHT22;7483;50.498;12.138;2023-03-11T11:20:29;2.70;99.90
14783;DHT22;7483;50.498;12.138;2023-03-11T11:23:00;2.60;99.90
14783;DHT22;7483;50.498;12.138;2023-03-11T11:25:31;2.60;99.90
14783;DHT22;7483;50.498;12.138;2023-03-11T11:28:14;2.60;99.90
14783;DHT22;7483;50.498;12.138;2023-03-11T11:30:52;2.50;99.90
14783;DHT22;7483;50.498;12.138;2023-03-11T11:33:24;2.50;99.90
14783;DHT22;7483;50.498;12.138;2023-03-11T11:35:56;2.60;99.90
14783;DHT22;7483;50.498;12.138;2023-03-11T11:38:27;2.70;99.90
14783;DHT22;7483;50.498;12.138;2023-03-11T11:40:58;2.60;99.90
14783;DHT22;7483;50.498;12.138;2023-03-11T11:43:40;2.40;99.90
14783;DHT22;7483;50.498;12.138;2023-03-11T11:46:19;2.30;99.90
14783;DHT22;7483;50.498;12.138;2023-03-11T11:48:58;2.30;99.90
14783;DHT22;7483;50.498;12.138;2023-03-11T11:51:38;2.40;99.90
14783;DHT22;7483;50.498;12.138;2023-03-11T11:54:15;2.40;99.90
14783;DHT22;7483;50.498;12.138;2023-03-11T11:56:45;2.50;99.90
14783;DHT22;7483;50.498;12.138;2023-03-11T11:59:16;2.60;99.90
14783;DHT22;7483;50.498;12.138;2023-03-11T12:01:54;2.60;99.90
14783;DHT22;7483;50.498;12.138;2023-03-11T12:04:49;2.60;99.90
14783;DHT22;7483;50.498;12.138;2023-03-11T12:07:34;2.70;99.90
14783;DHT22;7483;50.498;12.138;2023-03-11T12:10:22;2.90;99.90
14783;DHT22;7483;50.498;12.138;2023-03-11T12:13:12;3.00;99.90
14783;DHT22;7483;50.498;12.138;2023-03-11T12:15:54;2.90;99.90
14783;DHT22;7483;50.498;12.138;2023-03-11T12:18:33;2.80;99.90
14783;DHT22;7483;50.498;12.138;2023-03-11T12:21:12;2.70;99.90
14783;DHT22;7483;50.498;12.138;2023-03-11T12:24:01;2.80;99.90
14783;DHT22;7483;50.498;12.138;2023-03-11T12:26:41;2.70;99.90
14783;DHT22;7483;50.498;12.138;2023-03-11T12:29:20;2.60;99.90
14783;DHT22;7483;50.498;12.138;2023-03-11T12:31:54;2.60;99.90
14783;DHT22;7483;50.498;12.138;2023-03-11T12:34:27;2.40;99.90
14783;DHT22;7483;50.498;12.138;2023-03-11T12:36:59;2.40;99.90
14783;DHT22;7483;50.498;12.138;2023-03-11T12:39:30;2.50;99.90
14783;DHT22;7483;50.498;12.138;2023-03-11T12:42:20;2.60;99.90
14783;DHT22;7483;50.498;12.138;2023-03-11T12:44:50;2.60;99.90
14783;DHT22;7483;50.498;12.138;2023-03-11T12:47:22;2.70;99.90
14783;DHT22;7483;50.498;12.138;2023-03-11T12:49:52;2.90;99.90
14783;DHT22;7483;50.498;12.138;2023-03-11T12:52:27;2.90;99.90
14783;DHT22;7483;50.498;12.138;2023-03-11T12:58:31;2.80;99.90
14783;DHT22;7483;50.498;12.138;2023-03-11T13:01:31;2.70;99.90
14783;DHT22;7483;50.498;12.138;2023-03-11T13:04:50;2.90;99.90
14783;DHT22;7483;50.498;12.138;2023-03-11T13:07:35;3.00;99.90
14783;DHT22;7483;50.498;12.138;2023-03-11T13:10:32;3.00;99.90
14783;DHT22;7483;50.498;12.138;2023-03-11T13:13:21;2.90;99.90
14783;DHT22;7483;50.498;12.138;2023-03-11T13:19:32;2.80;99.90
14783;DHT22;7483;50.498;12.138;2023-03-11T13:22:04;2.70;99.90
14783;DHT22;7483;50.498;12.138;2023-03-11T13:25:31;2.80;99.90
14783;DHT22;7483;50.498;12.138;2023-03-11T13:28:42;2.70;99.90
14783;DHT22;7483;50.498;12.138;2023-03-11T13:31:40;2.60;99.90
14783;DHT22;7483;50.498;12.138;2023-03-11T13:34:17;2.70;99.90
14783;DHT22;7483;50.498;12.138;2023-03-11T13:37:04;2.60;99.90
14783;DHT22;7483;50.498;12.138;2023-03-11T13:39:54;2.50;99.90
14783;DHT22;7483;50.498;12.138;2023-03-11T13:42:34;2.50;99.90
14783;DHT22;7483;50.498;12.138;2023-03-11T13:45:15;2.50;99.90
14783;DHT22;7483;50.498;12.138;2023-03-11T13:47:52;2.60;99.90
14783;DHT22;7483;50.498;12.138;2023-03-11T13:50:27;2.80;99.90
14783;DHT22;7483;50.498;12.138;2023-03-11T13:53:02;2.90;99.90
14783;DHT22;7483;50.498;12.138;2023-03-11T13:55:38;2.90;99.90
14783;DHT22;7483;50.498;12.138;2023-03-11T13:58:16;2.90;99.90
14783;DHT22;7483;50.498;12.138;2023-03-11T14:00:49;2.90;99.90
14783;DHT22;7483;50.498;12.138;2023-03-11T14:03:20;3.00;99.90
14783;DHT22;7483;50.498;12.138;2023-03-11T14:05:56;2.90;99.90
14783;DHT22;7483;50.498;12.138;2023-03-11T14:08:30;2.90;99.90
14783;DHT22;7483;50.498;12.138;2023-03-11T14:11:01;2.90;99.90
14783;DHT22;7483;50.498;12.138;2023-03-11T14:13:32;2.80;99.90
14783;DHT22;7483;50.498;12.138;2023-03-11T14:16:07;2.70;99.90
14783;DHT22;7483;50.498;12.138;2023-03-11T14:18:39;2.50;99.90
14783;DHT22;7483;50.498;12.138;2023-03-11T14:21:12;2.60;99.90
14783;DHT22;7483;50.498;12.138;2023-03-11T14:23:46;2.60;99.90
14783;DHT22;7483;50.498;12.138;2023-03-11T14:26:18;2.70;99.90
14783;DHT22;7483;50.498;12.138;2023-03-11T14:28:50;2.70;99.90
14783;DHT22;7483;50.498;12.138;2023-03-11T14:31:29;2.80;99.90
14783;DHT22;7483;50.498;12.138;2023-03-11T14:33:59;2.80;99.90
14783;DHT22;7483;50.498;12.138;2023-03-11T14:36:42;2.80;99.90
14783;DHT22;7483;50.498;12.138;2023-03-11T14:39:29;2.80;99.90
14783;DHT22;7483;50.498;12.138;2023-03-11T14:42:03;2.80;99.90
14783;DHT22;7483;50.498;12.138;2023-03-11T14:44:40;2.70;99.90
14783;DHT22;7483;50.498;12.138;2023-03-11T14:47:15;2.60;99.90
14783;DHT22;7483;50.498;12.138;2023-03-11T14:49:47;2.60;99.90
14783;DHT22;7483;50.498;12.138;2023-03-11T14:52:19;2.60;99.90
14783;DHT22;7483;50.498;12.138;2023-03-11T14:54:55;2.60;99.90
14783;DHT22;7483;50.498;12.138;2023-03-11T14:57:33;2.50;99.90
14783;DHT22;7483;50.498;12.138;2023-03-11T15:00:05;2.40;99.90
14783;DHT22;7483;50.498;12.138;2023-03-11T15:02:52;2.40;99.90
14783;DHT22;7483;50.498;12.138;2023-03-11T15:05:29;2.40;99.90
14783;DHT22;7483;50.498;12.138;2023-03-11T15:08:04;2.50;99.90
14783;DHT22;7483;50.498;12.138;2023-03-11T15:10:34;2.50;99.90
14783;DHT22;7483;50.498;12.138;2023-03-11T15:13:08;2.60;99.90
14783;DHT22;7483;50.498;12.138;2023-03-11T15:15:40;2.50;99.90
14783;DHT22;7483;50.498;12.138;2023-03-11T15:18:21;2.50;99.90
14783;DHT22;7483;50.498;12.138;2023-03-11T15:21:05;2.40;99.90
14783;DHT22;7483;50.498;12.138;2023-03-11T15:23:43;2.50;99.90
14783;DHT22;7483;50.498;12.138;2023-03-11T15:26:21;2.40;99.90
14783;DHT22;7483;50.498;12.138;2023-03-11T15:28:56;2.40;99.90
14783;DHT22;7483;50.498;12.138;2023-03-11T15:31:29;2.40;99.90
14783;DHT22;7483;50.498;12.138;2023-03-11T15:34:26;2.50;99.90
14783;DHT22;7483;50.498;12.138;2023-03-11T15:37:02;2.60;99.90
14783;DHT22;7483;50.498;12.138;2023-03-11T15:39:44;2.50;99.90
14783;DHT22;7483;50.498;12.138;2023-03-11T15:42:21;2.50;99.90
14783;DHT22;7483;50.498;12.138;2023-03-11T15:45:03;2.50;99.90
14783;DHT22;7483;50.498;12.138;2023-03-11T15:47:38;2.60;99.90
14783;DHT22;7483;50.498;12.138;2023-03-11T15:50:14;2.60;99.90
14783;DHT22;7483;50.498;12.138;2023-03-11T15:52:54;2.60;99.90
14783;DHT22;7483;50.498;12.138;2023-03-11T15:55:24;2.50;99.90
14783;DHT22;7483;50.498;12.138;2023-03-11T15:57:59;2.60;99.90
14783;DHT22;7483;50.498;12.138;2023-03-11T16:00:31;2.60;99.90
14783;DHT22;7483;50.498;12.138;2023-03-11T16:03:02;2.70;99.90
14783;DHT22;7483;50.498;12.138;2023-03-11T16:05:31;2.70;99.90
14783;DHT22;7483;50.498;12.138;2023-03-11T16:07:59;2.70;99.90
14783;DHT22;7483;50.498;12.138;2023-03-11T16:10:27;2.70;99.90
14783;DHT22;7483;50.498;12.138;2023-03-11T16:12:56;2.70;99.90
14783;DHT22;7483;50.498;12.138;2023-03-11T16:15:25;2.70;99.90
14783;DHT22;7483;50.498;12.138;2023-03-11T16:17:56;2.70;99.90
14783;DHT22;7483;50.498;12.138;2023-03-11T16:20:29;2.70;99.90
14783;DHT22;7483;50.498;12.138;2023-03-11T16:23:00;2.70;99.90
14783;DHT22;7483;50.498;12.138;2023-03-11T16:25:30;2.70;99.90
14783;DHT22;7483;50.498;12.138;2023-03-11T16:28:03;2.70;99.90
14783;DHT22;7483;50.498;12.138;2023-03-11T16:30:33;2.80;99.90
14783;DHT22;7483;50.498;12.138;2023-03-11T16:33:01;2.80;99.90